Biloxi, MS

4:37 PM CST on February 20, 2017 (GMT -0600)
Forest Cove | | Change Station

Elev 38 ft 30.44 °N, 88.90 °W | Updated 25 seconds ago

Scattered Clouds
Scattered Clouds
72.1 °F
Feels Like 74 °F
N
3.0
Wind Variable Wind from ESE

Today
High -- | Low -- °F
--% Chance of Precip.
Yesterday
High -- | Low -- °F
Precip. -- in
Pressure 30.04 in
Visibility 10.0 miles
Clouds Few 4700 ft
Scattered Clouds 6000 ft
Heat Index 74 °F
Dew Point 64 °F
Humidity 75%
Rainfall 0.00 in
Snow Depth Not available.
6:30 AM 5:48 PM
Waning Crescent, 30% visible
METAR KBIX 202158Z AUTO 13013KT 10SM FEW047 SCT060 22/18 A3003 RMK AO2 SLP172 T02230183
Pressure 30.04 in
Visibility 10.0 miles
Clouds Few 4700 ft
Scattered Clouds 6000 ft
Heat Index 74 °F
Dew Point 64 °F
Humidity 75%
Rainfall 0.00 in
Snow Depth Not available.
6:30 AM 5:48 PM
Waning Crescent, 30% visible
METAR KBIX 202158Z AUTO 13013KT 10SM FEW047 SCT060 22/18 A3003 RMK AO2 SLP172 T02230183

Get Your Daily Forecast Email!

Thanks for signing up!

Be on the lookout for a verification email in your inbox.

You'll start receiving the daily forecast at 8 AM.

×

10-Day Weather Forecast

Almanac

Astronomy

Feb. 20, 2017 Rise Set
Actual Time
Civil Twilight
Nautical Twilight
Astronomical Twilight
Moon
Length of Visible Light
Length of Day
Tomorrow will be .
, % of the Moon is Illuminated

Today's Extremes

State Highs State Lows

Community

WunderPhotos

Upload Photos

1,962,540 photos uploaded!

WunderBlog® & News

Nearby

Air Quality

  Air Quality AQ Index Pollutant
Not available.

Snow Depth

Station Depth Elevation

Earthquake Activity

City Distance Mag. Time & Date
Minimum magnitude displayed is 2.5.

Coastal Water Temperatures

Place Temperature

Stations

Nearby Weather Stations

Station Location Temp. Windchill Dew Point Humidity Wind Precip. Elev Updated Type
                   

Watches & Warnings

There are currently no watches in effect.